Time;durP1;ratioP1;P1;durP2;ratioP2;P2;SDS_P1;SDS_P2;PMS_P1;PMS_P2;Temp;Humidity;BMP_temperature;BMP_pressure;BME280_temperature;BME280_humidity;BME280_pressure;Samples;Min_cycle;Max_cycle;Signal;HPM_P1;HPM_P2
2021/11/15 00:01:18;;;;;;;45.75;22.75;;;;;;;;;;5033191;28;20240;-57
2021/11/15 00:03:47;;;;;;;47.58;22.60;;;;;;;;;;5033101;28;20199;-55
2021/11/15 00:06:14;;;;;;;51.20;23.55;;;;;;;;;;5033297;28;20301;-56
2021/11/15 00:08:41;;;;;;;50.42;23.33;;;;;;;;;;5033590;28;20202;-56
2021/11/15 00:11:09;;;;;;;45.95;22.00;;;;;;;;;;5033749;28;20234;-56
2021/11/15 00:13:36;;;;;;;44.83;22.92;;;;;;;;;;5033193;28;20699;-56
2021/11/15 00:16:04;;;;;;;48.55;21.27;;;;;;;;;;5033621;28;20206;-57
2021/11/15 00:18:33;;;;;;;47.80;23.40;;;;;;;;;;5033158;28;20202;-56
2021/11/15 00:21:01;;;;;;;49.88;22.75;;;;;;;;;;5033171;28;20229;-56
2021/11/15 00:23:29;;;;;;;58.80;22.73;;;;;;;;;;5033493;28;20206;-56
2021/11/15 00:25:56;;;;;;;58.30;23.48;;;;;;;;;;5038197;28;20199;-56
2021/11/15 00:28:23;;;;;;;58.45;23.95;;;;;;;;;;5038802;28;20207;-56
2021/11/15 00:30:50;;;;;;;55.55;23.17;;;;;;;;;;5037065;28;20226;-55
2021/11/15 00:33:18;;;;;;;54.42;22.77;;;;;;;;;;5037670;28;20232;-56
2021/11/15 00:35:47;;;;;;;49.92;22.67;;;;;;;;;;5036878;28;20606;-54
2021/11/15 00:38:14;;;;;;;57.13;23.63;;;;;;;;;;5037111;28;20198;-56
2021/11/15 00:40:41;;;;;;;49.50;21.33;;;;;;;;;;5036672;28;20230;-55
2021/11/15 00:43:09;;;;;;;50.95;21.75;;;;;;;;;;5037550;28;20222;-55
2021/11/15 00:45:36;;;;;;;50.92;22.63;;;;;;;;;;5038139;28;20198;-56
2021/11/15 00:48:03;;;;;;;49.97;22.42;;;;;;;;;;5038563;28;20584;-55
2021/11/15 00:50:31;;;;;;;54.38;23.15;;;;;;;;;;5037393;28;20710;-56
2021/11/15 00:52:59;;;;;;;52.17;23.00;;;;;;;;;;5038142;28;20213;-57
2021/11/15 00:55:27;;;;;;;50.88;20.83;;;;;;;;;;5036624;28;20202;-56
2021/11/15 00:57:54;;;;;;;57.35;24.58;;;;;;;;;;5036787;28;20199;-56
2021/11/15 01:00:26;;;;;;;53.63;22.73;;;;;;;;;;5036398;28;20219;-56
2021/11/15 01:02:54;;;;;;;50.50;21.25;;;;;;;;;;5036779;28;20190;-55
2021/11/15 01:05:22;;;;;;;49.83;21.70;;;;;;;;;;5036300;28;20694;-56
2021/11/15 01:07:49;;;;;;;48.40;21.15;;;;;;;;;;5036792;28;20204;-56
2021/11/15 01:10:19;;;;;;;49.85;21.63;;;;;;;;;;5036534;28;20230;-56
2021/11/15 01:12:47;;;;;;;60.70;23.48;;;;;;;;;;5036549;28;20206;-57
2021/11/15 01:15:17;;;;;;;51.13;22.20;;;;;;;;;;5036569;28;20303;-57
2021/11/15 01:17:44;;;;;;;53.97;22.63;;;;;;;;;;5036647;28;20202;-57
2021/11/15 01:20:13;;;;;;;54.85;21.60;;;;;;;;;;5036780;28;20225;-56
2021/11/15 01:22:40;;;;;;;56.47;24.05;;;;;;;;;;5037344;28;20550;-57
2021/11/15 01:25:08;;;;;;;51.38;21.20;;;;;;;;;;5036601;28;20202;-56
2021/11/15 01:27:37;;;;;;;54.53;21.98;;;;;;;;;;5037803;28;20211;-56
2021/11/15 01:30:04;;;;;;;44.85;19.67;;;;;;;;;;5037897;28;20249;-57
2021/11/15 01:32:32;;;;;;;47.38;21.25;;;;;;;;;;5036634;28;20555;-56
2021/11/15 01:34:59;;;;;;;50.65;20.13;;;;;;;;;;5035872;28;20220;-57
2021/11/15 01:37:26;;;;;;;42.17;19.15;;;;;;;;;;5035776;28;20205;-58
2021/11/15 01:39:54;;;;;;;36.92;17.77;;;;;;;;;;5035887;28;20237;-56
2021/11/15 01:42:21;;;;;;;43.58;20.42;;;;;;;;;;5035693;28;20209;-56
2021/11/15 01:44:50;;;;;;;43.58;20.15;;;;;;;;;;5035938;28;20199;-56
2021/11/15 01:47:17;;;;;;;50.22;20.00;;;;;;;;;;5035803;28;20213;-56
2021/11/15 01:49:44;;;;;;;38.72;19.17;;;;;;;;;;5036095;28;20222;-56
2021/11/15 01:52:12;;;;;;;53.15;22.77;;;;;;;;;;5036519;28;20203;-56
2021/11/15 01:54:39;;;;;;;46.15;19.98;;;;;;;;;;5036424;28;20218;-56
2021/11/15 01:57:07;;;;;;;45.08;19.80;;;;;;;;;;5037149;28;20603;-55
2021/11/15 01:59:35;;;;;;;37.95;19.52;;;;;;;;;;5037148;28;20218;-56
2021/11/15 02:02:03;;;;;;;49.65;19.25;;;;;;;;;;5036919;28;20207;-56
2021/11/15 02:04:31;;;;;;;38.35;18.90;;;;;;;;;;5036413;28;20209;-57
2021/11/15 02:06:58;;;;;;;51.03;20.70;;;;;;;;;;5035737;28;20213;-57
2021/11/15 02:09:27;;;;;;;47.17;21.85;;;;;;;;;;5035376;28;20229;-57
2021/11/15 02:11:55;;;;;;;41.75;21.10;;;;;;;;;;5035118;28;20206;-56
2021/11/15 02:14:22;;;;;;;40.10;19.20;;;;;;;;;;5035310;28;20222;-57
2021/11/15 02:16:49;;;;;;;44.95;21.02;;;;;;;;;;5035000;28;20286;-56
2021/11/15 02:19:18;;;;;;;45.13;21.40;;;;;;;;;;5035279;28;20213;-56
2021/11/15 02:21:47;;;;;;;44.78;21.85;;;;;;;;;;5035248;28;20253;-56
2021/11/15 02:24:16;;;;;;;52.40;22.98;;;;;;;;;;5035179;28;20203;-55
2021/11/15 02:26:44;;;;;;;47.88;24.83;;;;;;;;;;5035374;28;20206;-56
2021/11/15 02:29:11;;;;;;;44.15;23.70;;;;;;;;;;5035196;28;20569;-57
2021/11/15 02:31:39;;;;;;;45.03;22.25;;;;;;;;;;5035196;28;20193;-57
2021/11/15 02:34:10;;;;;;;48.00;23.00;;;;;;;;;;5034932;28;20336;-56
2021/11/15 02:36:38;;;;;;;48.97;20.92;;;;;;;;;;5035626;28;20206;-57
2021/11/15 02:39:07;;;;;;;47.83;23.77;;;;;;;;;;5034743;28;20203;-58
2021/11/15 02:41:34;;;;;;;54.28;26.60;;;;;;;;;;5035288;28;20205;-56
2021/11/15 02:44:02;;;;;;;51.10;24.95;;;;;;;;;;5035191;28;20607;-56
2021/11/15 02:46:31;;;;;;;56.00;28.15;;;;;;;;;;5034911;28;20204;-56
2021/11/15 02:48:58;;;;;;;57.92;29.15;;;;;;;;;;5034090;28;20207;-57
2021/11/15 02:51:25;;;;;;;66.50;30.05;;;;;;;;;;5034789;28;20228;-57
2021/11/15 02:53:53;;;;;;;60.70;30.08;;;;;;;;;;5034941;28;20207;-57
2021/11/15 02:56:22;;;;;;;67.55;34.35;;;;;;;;;;5034393;28;20575;-58
2021/11/15 02:58:49;;;;;;;62.55;32.58;;;;;;;;;;5034713;28;20211;-57
2021/11/15 03:01:20;;;;;;;69.03;33.00;;;;;;;;;;5034160;28;20227;-57
2021/11/15 03:03:47;;;;;;;57.90;29.50;;;;;;;;;;5034719;28;20210;-57
2021/11/15 03:06:15;;;;;;;63.28;28.05;;;;;;;;;;5034447;28;20204;-57
2021/11/15 03:08:42;;;;;;;57.35;28.45;;;;;;;;;;5034457;28;20202;-57
2021/11/15 03:11:09;;;;;;;58.58;27.58;;;;;;;;;;5034328;28;20227;-56
2021/11/15 03:13:40;;;;;;;60.60;27.75;;;;;;;;;;5033826;28;20675;-57
2021/11/15 03:16:07;;;;;;;60.90;29.95;;;;;;;;;;5033881;28;20701;-56
2021/11/15 03:18:35;;;;;;;69.85;33.25;;;;;;;;;;5034234;28;20210;-56
2021/11/15 03:21:04;;;;;;;66.75;34.03;;;;;;;;;;5033811;28;20226;-57
2021/11/15 03:23:32;;;;;;;63.65;34.20;;;;;;;;;;5034804;28;20229;-56
2021/11/15 03:26:00;;;;;;;60.85;32.42;;;;;;;;;;5034262;28;20592;-57
2021/11/15 03:28:29;;;;;;;61.75;30.95;;;;;;;;;;5035788;28;20206;-57
2021/11/15 03:30:59;;;;;;;65.95;32.22;;;;;;;;;;5040513;28;20234;-55
2021/11/15 03:33:27;;;;;;;65.18;32.50;;;;;;;;;;5042017;28;20195;-55
2021/11/15 03:35:54;;;;;;;59.15;30.25;;;;;;;;;;5039643;28;20298;-56
2021/11/15 03:38:22;;;;;;;68.47;30.88;;;;;;;;;;5039122;28;20203;-55
2021/11/15 03:40:49;;;;;;;58.33;30.92;;;;;;;;;;5038779;28;20227;-56
2021/11/15 03:43:16;;;;;;;60.00;30.17;;;;;;;;;;5039471;28;20202;-55
2021/11/15 03:45:44;;;;;;;63.10;31.33;;;;;;;;;;5038195;28;20206;-57
2021/11/15 03:48:13;;;;;;;59.70;31.83;;;;;;;;;;5037198;28;20241;-55
2021/11/15 03:50:41;;;;;;;66.40;30.65;;;;;;;;;;5037877;28;20227;-57
2021/11/15 03:53:11;;;;;;;65.18;31.67;;;;;;;;;;5038089;28;20209;-57
2021/11/15 03:55:39;;;;;;;63.20;31.25;;;;;;;;;;5036300;28;20222;-55
2021/11/15 03:58:06;;;;;;;62.67;31.42;;;;;;;;;;5034701;28;20225;-56
2021/11/15 04:00:36;;;;;;;65.38;30.95;;;;;;;;;;5034244;28;20229;-55
2021/11/15 04:03:08;;;;;;;55.70;29.25;;;;;;;;;;5034818;28;20206;-57
2021/11/15 04:08:52;;;;;;;60.43;31.27;;;;;;;;;;5106972;27;1417017;-57
2021/11/15 04:11:21;;;;;;;62.95;32.60;;;;;;;;;;5132553;28;20466;-59
2021/11/15 04:13:50;;;;;;;66.30;32.15;;;;;;;;;;5132117;28;20299;-57
2021/11/15 04:16:18;;;;;;;57.42;30.48;;;;;;;;;;5131941;28;20204;-57
2021/11/15 04:21:14;;;;;;;57.03;31.05;;;;;;;;;;5087349;22;20223;-56
2021/11/15 04:23:41;;;;;;;55.33;29.80;;;;;;;;;;5070360;28;20218;-56
2021/11/15 04:26:10;;;;;;;59.80;31.20;;;;;;;;;;5070349;28;20221;-56
2021/11/15 04:28:37;;;;;;;59.30;30.33;;;;;;;;;;5070293;28;20229;-56
2021/11/15 04:31:05;;;;;;;53.10;28.33;;;;;;;;;;5070261;28;20222;-57
2021/11/15 04:33:32;;;;;;;46.95;26.42;;;;;;;;;;5069918;28;20203;-57
2021/11/15 04:36:00;;;;;;;46.58;25.02;;;;;;;;;;5069847;28;20206;-57
2021/11/15 04:38:27;;;;;;;45.45;26.08;;;;;;;;;;5069903;28;20695;-57
2021/11/15 04:40:54;;;;;;;45.42;26.45;;;;;;;;;;5070421;28;20231;-56
2021/11/15 04:43:23;;;;;;;49.90;26.80;;;;;;;;;;5070053;28;20210;-56
2021/11/15 04:45:50;;;;;;;44.20;25.60;;;;;;;;;;5070019;28;20214;-57
2021/11/15 04:48:18;;;;;;;43.22;27.20;;;;;;;;;;5069760;28;20219;-56
2021/11/15 04:50:45;;;;;;;49.92;27.95;;;;;;;;;;5069771;28;20249;-56
2021/11/15 04:53:12;;;;;;;42.13;26.02;;;;;;;;;;5069272;28;20202;-57
2021/11/15 04:55:40;;;;;;;46.17;25.85;;;;;;;;;;5069757;28;20560;-57
2021/11/15 04:58:08;;;;;;;46.72;27.23;;;;;;;;;;5069504;28;20205;-57
2021/11/15 05:00:37;;;;;;;45.92;25.67;;;;;;;;;;5069124;28;20710;-56
2021/11/15 05:03:05;;;;;;;46.33;27.38;;;;;;;;;;5069263;28;20202;-55
2021/11/15 05:05:32;;;;;;;46.78;26.52;;;;;;;;;;5069588;28;20226;-56
2021/11/15 05:08:00;;;;;;;46.00;27.13;;;;;;;;;;5069102;28;20629;-56
2021/11/15 05:10:28;;;;;;;50.30;27.98;;;;;;;;;;5069264;28;20229;-56
2021/11/15 05:12:56;;;;;;;42.83;26.33;;;;;;;;;;5069385;28;20208;-56
2021/11/15 05:15:23;;;;;;;45.78;27.35;;;;;;;;;;5069300;28;20209;-56
2021/11/15 05:17:53;;;;;;;44.40;26.00;;;;;;;;;;5068871;28;20205;-56
2021/11/15 05:20:21;;;;;;;44.70;25.35;;;;;;;;;;5055116;28;20234;-56
2021/11/15 05:22:48;;;;;;;45.05;27.02;;;;;;;;;;5055950;28;20206;-56
2021/11/15 05:25:16;;;;;;;48.58;27.25;;;;;;;;;;5055546;28;20203;-56
2021/11/15 05:27:43;;;;;;;36.42;24.23;;;;;;;;;;5055980;28;20734;-56
2021/11/15 05:30:13;;;;;;;48.45;27.67;;;;;;;;;;5056004;28;20227;-56
2021/11/15 05:32:40;;;;;;;46.50;28.13;;;;;;;;;;5056001;28;20312;-57
2021/11/15 05:35:10;;;;;;;42.80;26.27;;;;;;;;;;5056410;28;20579;-56
2021/11/15 05:37:37;;;;;;;50.30;28.25;;;;;;;;;;5056037;28;20549;-56
2021/11/15 05:40:05;;;;;;;41.83;25.15;;;;;;;;;;5056121;28;20230;-56
2021/11/15 05:42:33;;;;;;;38.40;25.05;;;;;;;;;;5055422;28;20210;-56
2021/11/15 05:45:01;;;;;;;39.65;24.52;;;;;;;;;;5055329;28;20674;-56
2021/11/15 05:47:28;;;;;;;46.28;25.40;;;;;;;;;;5055364;28;20214;-56
2021/11/15 05:49:55;;;;;;;35.17;23.27;;;;;;;;;;5055394;28;20623;-56
2021/11/15 05:52:24;;;;;;;39.58;23.98;;;;;;;;;;5055276;28;20208;-56
2021/11/15 05:54:51;;;;;;;44.58;26.70;;;;;;;;;;5055116;28;20207;-57
2021/11/15 05:57:19;;;;;;;42.38;27.08;;;;;;;;;;5055202;28;20206;-55
2021/11/15 05:59:46;;;;;;;42.55;27.33;;;;;;;;;;5054983;28;20226;-55
2021/11/15 06:02:13;;;;;;;47.05;27.38;;;;;;;;;;5055019;28;20604;-58
2021/11/15 06:04:41;;;;;;;41.92;24.83;;;;;;;;;;5054829;28;20208;-55
2021/11/15 06:07:08;;;;;;;42.00;25.70;;;;;;;;;;5054906;28;20261;-56
2021/11/15 06:09:37;;;;;;;39.58;23.85;;;;;;;;;;5055008;28;20223;-56
2021/11/15 06:12:05;;;;;;;41.45;26.08;;;;;;;;;;5054664;28;20211;-57
2021/11/15 06:14:32;;;;;;;39.78;25.30;;;;;;;;;;5054541;28;20200;-55
2021/11/15 06:16:59;;;;;;;41.40;25.58;;;;;;;;;;5054695;28;20197;-56
2021/11/15 06:19:27;;;;;;;43.35;25.75;;;;;;;;;;5054295;28;20243;-56
2021/11/15 06:21:54;;;;;;;36.30;23.40;;;;;;;;;;5054560;28;20204;-56
2021/11/15 06:24:21;;;;;;;39.60;23.80;;;;;;;;;;5054233;28;20203;-56
2021/11/15 06:26:50;;;;;;;38.67;23.90;;;;;;;;;;5054546;28;20210;-56
2021/11/15 06:29:17;;;;;;;36.25;23.52;;;;;;;;;;5054489;28;20227;-54
2021/11/15 06:31:45;;;;;;;39.22;23.42;;;;;;;;;;5053442;28;20212;-54
2021/11/15 06:34:12;;;;;;;37.40;22.38;;;;;;;;;;5054310;28;20712;-55
2021/11/15 06:36:39;;;;;;;38.80;22.92;;;;;;;;;;5054577;28;20205;-55
2021/11/15 06:39:07;;;;;;;39.45;22.77;;;;;;;;;;5054480;28;20207;-54
2021/11/15 06:41:35;;;;;;;37.63;22.23;;;;;;;;;;5054750;28;20570;-55
2021/11/15 06:44:05;;;;;;;37.05;23.38;;;;;;;;;;5054148;28;20624;-54
2021/11/15 06:46:33;;;;;;;40.70;23.05;;;;;;;;;;5054416;28;20203;-55
2021/11/15 06:49:00;;;;;;;37.30;23.30;;;;;;;;;;5053716;28;20222;-56
2021/11/15 06:51:28;;;;;;;39.35;21.48;;;;;;;;;;5053738;28;20583;-55
2021/11/15 06:53:55;;;;;;;33.58;20.95;;;;;;;;;;5054149;28;20210;-55
2021/11/15 06:56:23;;;;;;;33.90;22.02;;;;;;;;;;5053705;28;20231;-55
2021/11/15 06:58:50;;;;;;;39.22;21.98;;;;;;;;;;5053540;28;20199;-55
2021/11/15 07:01:19;;;;;;;38.45;23.83;;;;;;;;;;5053872;28;20291;-55
2021/11/15 07:03:47;;;;;;;31.98;22.40;;;;;;;;;;5053715;28;20212;-54
2021/11/15 07:06:14;;;;;;;37.25;22.65;;;;;;;;;;5053656;28;20203;-55
2021/11/15 07:08:41;;;;;;;35.67;22.30;;;;;;;;;;5053616;28;20222;-56
2021/11/15 07:11:08;;;;;;;43.55;23.63;;;;;;;;;;5053321;28;20234;-56
2021/11/15 07:13:36;;;;;;;36.45;22.75;;;;;;;;;;5053459;28;20516;-56
2021/11/15 07:16:03;;;;;;;35.20;21.15;;;;;;;;;;5053687;28;20290;-56
2021/11/15 07:18:33;;;;;;;32.65;21.13;;;;;;;;;;5053165;28;20763;-57
2021/11/15 07:21:00;;;;;;;32.65;20.10;;;;;;;;;;5053070;28;20234;-56
2021/11/15 07:23:27;;;;;;;35.08;22.42;;;;;;;;;;5053480;28;20283;-56
2021/11/15 07:25:55;;;;;;;39.33;22.83;;;;;;;;;;5053741;28;20585;-56
2021/11/15 07:28:22;;;;;;;35.35;23.13;;;;;;;;;;5052868;28;20462;-57
2021/11/15 07:30:54;;;;;;;38.22;22.80;;;;;;;;;;5053443;28;20251;-58
2021/11/15 07:33:22;;;;;;;33.55;20.75;;;;;;;;;;5053720;28;20605;-57
2021/11/15 07:35:50;;;;;;;30.30;20.42;;;;;;;;;;5053377;28;20206;-60
2021/11/15 07:38:18;;;;;;;40.22;20.27;;;;;;;;;;5053154;28;20671;-58
2021/11/15 07:40:46;;;;;;;31.55;20.13;;;;;;;;;;5053182;28;20232;-58
2021/11/15 07:43:13;;;;;;;35.72;21.17;;;;;;;;;;5052879;28;20208;-57
2021/11/15 07:45:41;;;;;;;33.08;20.75;;;;;;;;;;5053264;28;20208;-58
2021/11/15 07:48:08;;;;;;;36.10;22.20;;;;;;;;;;5053196;28;20224;-59
2021/11/15 07:50:36;;;;;;;41.53;20.27;;;;;;;;;;5053205;28;20234;-57
2021/11/15 07:53:05;;;;;;;36.75;21.70;;;;;;;;;;5052567;28;20227;-57
2021/11/15 07:55:33;;;;;;;38.17;22.25;;;;;;;;;;5052679;28;20203;-58
2021/11/15 07:58:01;;;;;;;35.65;21.48;;;;;;;;;;5053117;28;20199;-57
2021/11/15 08:00:29;;;;;;;38.67;21.98;;;;;;;;;;5052897;28;20601;-59
2021/11/15 08:02:56;;;;;;;37.05;22.85;;;;;;;;;;5053563;28;20208;-58
2021/11/15 08:05:24;;;;;;;34.95;21.35;;;;;;;;;;5053938;28;20208;-58
2021/11/15 08:07:51;;;;;;;39.90;22.95;;;;;;;;;;5054953;28;20231;-59
2021/11/15 08:10:21;;;;;;;36.25;21.80;;;;;;;;;;5054570;28;20223;-58
2021/11/15 08:12:49;;;;;;;38.53;21.58;;;;;;;;;;5059359;28;20215;-66
2021/11/15 08:15:17;;;;;;;42.67;22.95;;;;;;;;;;5054259;28;20566;-58
2021/11/15 08:17:46;;;;;;;34.55;20.58;;;;;;;;;;5053025;28;20209;-58
2021/11/15 08:20:14;;;;;;;36.00;21.58;;;;;;;;;;5052512;28;20234;-57
2021/11/15 08:22:42;;;;;;;34.20;20.30;;;;;;;;;;5052797;28;20207;-58
2021/11/15 08:25:34;;;;;;;36.90;22.00;;;;;;;;;;5052776;28;20230;-59
2021/11/15 08:28:02;;;;;;;33.33;21.40;;;;;;;;;;5052646;28;20194;-58
2021/11/15 08:30:30;;;;;;;36.42;21.77;;;;;;;;;;5052916;28;20224;-59
2021/11/15 08:32:57;;;;;;;36.90;22.02;;;;;;;;;;5053032;28;20234;-57
2021/11/15 08:35:25;;;;;;;37.03;21.42;;;;;;;;;;5052784;28;20206;-57
2021/11/15 08:38:12;;;;;;;35.53;22.05;;;;;;;;;;5052303;28;20203;-59
2021/11/15 08:40:39;;;;;;;32.55;20.70;;;;;;;;;;5052519;28;20219;-59
2021/11/15 08:43:08;;;;;;;43.10;23.40;;;;;;;;;;5053226;28;20219;-60
2021/11/15 08:45:36;;;;;;;34.30;21.27;;;;;;;;;;5052749;28;20204;-58
2021/11/15 08:48:04;;;;;;;29.95;19.65;;;;;;;;;;5052574;28;20674;-60
2021/11/15 08:50:32;;;;;;;39.10;23.15;;;;;;;;;;5052394;28;20224;-60
2021/11/15 08:52:59;;;;;;;31.13;19.30;;;;;;;;;;5052092;28;20680;-59
2021/11/15 08:55:27;;;;;;;37.20;21.85;;;;;;;;;;5055610;28;20206;-57
2021/11/15 08:57:55;;;;;;;35.53;20.92;;;;;;;;;;5056048;28;20216;-57
2021/11/15 09:00:24;;;;;;;33.33;21.25;;;;;;;;;;5055674;28;20222;-57
2021/11/15 09:02:51;;;;;;;36.47;20.95;;;;;;;;;;5056136;28;20203;-56
2021/11/15 09:05:19;;;;;;;35.25;20.80;;;;;;;;;;5055848;28;20207;-56
2021/11/15 09:07:47;;;;;;;28.55;18.75;;;;;;;;;;5056060;28;20216;-57
2021/11/15 09:10:15;;;;;;;34.67;21.95;;;;;;;;;;5056344;28;20227;-57
2021/11/15 09:12:43;;;;;;;34.55;22.05;;;;;;;;;;5056046;28;20219;-56
2021/11/15 09:15:12;;;;;;;30.55;19.63;;;;;;;;;;5055934;28;20202;-57
2021/11/15 09:17:41;;;;;;;34.55;21.02;;;;;;;;;;5055787;28;20563;-57
2021/11/15 09:20:09;;;;;;;34.10;20.48;;;;;;;;;;5055746;28;20572;-56
2021/11/15 09:22:37;;;;;;;30.00;19.30;;;;;;;;;;5055912;28;20206;-56
2021/11/15 09:25:05;;;;;;;31.30;19.88;;;;;;;;;;5055817;28;20315;-56
2021/11/15 09:27:32;;;;;;;35.53;21.23;;;;;;;;;;5055543;28;20675;-57
2021/11/15 09:30:00;;;;;;;33.80;20.10;;;;;;;;;;5055562;28;20235;-58
2021/11/15 09:32:27;;;;;;;31.38;20.35;;;;;;;;;;5055581;28;20204;-58
2021/11/15 09:34:56;;;;;;;28.83;18.40;;;;;;;;;;5055004;28;20579;-57
2021/11/15 09:37:24;;;;;;;37.85;20.80;;;;;;;;;;5055282;28;20679;-58
2021/11/15 09:39:51;;;;;;;34.90;21.13;;;;;;;;;;5054930;28;20258;-58
2021/11/15 09:42:19;;;;;;;33.58;20.85;;;;;;;;;;5055083;28;20722;-57
2021/11/15 09:44:46;;;;;;;32.40;20.95;;;;;;;;;;5055674;28;20211;-57
2021/11/15 09:47:13;;;;;;;37.75;21.30;;;;;;;;;;5055223;28;20681;-58
2021/11/15 09:49:41;;;;;;;39.05;21.13;;;;;;;;;;5055049;28;20239;-58
2021/11/15 09:52:10;;;;;;;31.73;20.30;;;;;;;;;;5056021;28;20607;-58
2021/11/15 09:54:38;;;;;;;35.00;21.00;;;;;;;;;;5055391;28;20230;-58
2021/11/15 09:57:08;;;;;;;37.05;19.35;;;;;;;;;;5055000;28;20695;-57
2021/11/15 09:59:35;;;;;;;35.75;21.08;;;;;;;;;;5054926;28;20218;-59
2021/11/15 10:02:02;;;;;;;40.33;20.88;;;;;;;;;;5055137;28;20210;-57
2021/11/15 10:04:30;;;;;;;38.30;20.80;;;;;;;;;;5055112;28;20295;-56
2021/11/15 10:06:57;;;;;;;37.45;19.85;;;;;;;;;;5055040;28;20204;-56
2021/11/15 10:09:30;;;;;;;35.00;21.52;;;;;;;;;;5054468;28;20256;-57
2021/11/15 10:11:58;;;;;;;36.78;21.52;;;;;;;;;;5054756;28;20214;-57
2021/11/15 10:14:25;;;;;;;37.05;21.10;;;;;;;;;;5054887;28;20207;-56
2021/11/15 10:16:53;;;;;;;40.72;21.95;;;;;;;;;;5054663;28;20238;-58
2021/11/15 10:22:00;;;;;;;34.45;20.58;;;;;;;;;;4996883;28;20219;-62
2021/11/15 10:24:32;;;;;;;30.77;17.27;;;;;;;;;;4996376;28;20305;-61
2021/11/15 10:27:01;;;;;;;33.28;19.67;;;;;;;;;;4995383;28;20193;-62
2021/11/15 10:29:33;;;;;;;36.50;20.10;;;;;;;;;;4994828;28;20674;-62
2021/11/15 10:32:02;;;;;;;27.13;18.92;;;;;;;;;;4995192;28;20235;-61
2021/11/15 10:34:31;;;;;;;30.05;19.77;;;;;;;;;;4995202;28;20285;-62
2021/11/15 10:37:00;;;;;;;29.30;18.80;;;;;;;;;;4995336;28;20216;-60
2021/11/15 10:39:31;;;;;;;35.55;21.65;;;;;;;;;;4995029;28;20203;-61
2021/11/15 10:42:02;;;;;;;33.17;19.83;;;;;;;;;;4994937;28;20190;-62
2021/11/15 10:44:30;;;;;;;34.60;18.58;;;;;;;;;;4994730;28;20666;-62
2021/11/15 10:46:59;;;;;;;31.52;21.35;;;;;;;;;;4994915;28;20229;-61
2021/11/15 10:49:26;;;;;;;28.55;18.13;;;;;;;;;;4994557;28;20258;-62
2021/11/15 10:51:56;;;;;;;29.70;19.83;;;;;;;;;;4994615;28;20201;-61
2021/11/15 10:54:34;;;;;;;32.00;20.67;;;;;;;;;;4994838;28;20206;-61
2021/11/15 10:57:16;;;;;;;29.52;18.92;;;;;;;;;;4994898;28;20195;-61
2021/11/15 10:59:43;;;;;;;28.02;20.42;;;;;;;;;;4994656;28;20191;-60
2021/11/15 11:02:25;;;;;;;29.65;20.58;;;;;;;;;;4994703;28;20210;-60
2021/11/15 11:05:05;;;;;;;34.38;21.17;;;;;;;;;;4994730;28;20190;-60
2021/11/15 11:07:33;;;;;;;30.73;21.90;;;;;;;;;;4994536;28;20676;-60
2021/11/15 11:10:02;;;;;;;27.95;20.48;;;;;;;;;;4994503;28;20240;-61
2021/11/15 11:12:34;;;;;;;28.08;19.20;;;;;;;;;;4994450;28;20206;-61
2021/11/15 11:15:16;;;;;;;29.15;19.15;;;;;;;;;;4994908;28;20190;-60
2021/11/15 11:18:06;;;;;;;27.08;18.00;;;;;;;;;;4995360;28;20266;-60
2021/11/15 11:21:02;;;;;;;28.08;19.15;;;;;;;;;;4995879;28;20248;-60
2021/11/15 11:23:44;;;;;;;30.58;22.02;;;;;;;;;;4997626;28;20293;-60
2021/11/15 11:26:13;;;;;;;29.25;20.48;;;;;;;;;;4996722;28;20240;-61
2021/11/15 11:28:42;;;;;;;30.10;21.00;;;;;;;;;;4996140;28;20213;-60
2021/11/15 11:31:11;;;;;;;29.55;21.00;;;;;;;;;;4996956;28;20227;-59
2021/11/15 11:33:39;;;;;;;27.42;20.90;;;;;;;;;;4996690;28;20297;-60
2021/11/15 11:36:07;;;;;;;30.02;19.90;;;;;;;;;;4997159;28;20216;-58
2021/11/15 11:38:35;;;;;;;29.13;21.40;;;;;;;;;;4995069;28;20375;-61
2021/11/15 11:41:02;;;;;;;28.95;23.33;;;;;;;;;;4995467;28;20709;-60
2021/11/15 11:43:31;;;;;;;30.67;21.33;;;;;;;;;;4995895;28;20204;-60
2021/11/15 11:46:00;;;;;;;34.47;21.52;;;;;;;;;;4996327;28;20228;-59
2021/11/15 11:48:28;;;;;;;28.50;20.73;;;;;;;;;;4996769;28;20208;-60
2021/11/15 11:50:57;;;;;;;37.55;22.98;;;;;;;;;;4995190;28;20240;-61
2021/11/15 11:53:25;;;;;;;33.80;21.98;;;;;;;;;;4994976;28;20314;-60
2021/11/15 11:55:53;;;;;;;35.55;25.48;;;;;;;;;;4995021;28;20216;-60
2021/11/15 11:58:24;;;;;;;32.60;21.73;;;;;;;;;;4994550;28;20554;-62
2021/11/15 12:00:53;;;;;;;33.67;21.92;;;;;;;;;;4993925;28;20269;-60
2021/11/15 12:03:20;;;;;;;36.38;26.45;;;;;;;;;;4993649;28;20210;-61
2021/11/15 12:05:49;;;;;;;33.50;22.80;;;;;;;;;;4993975;28;20666;-65
2021/11/15 12:08:16;;;;;;;32.92;22.85;;;;;;;;;;4994133;28;20229;-62
2021/11/15 12:10:49;;;;;;;37.72;23.95;;;;;;;;;;4995077;28;20229;-61
2021/11/15 12:13:17;;;;;;;35.70;23.90;;;;;;;;;;4993803;28;20230;-61
2021/11/15 12:15:45;;;;;;;35.47;24.13;;;;;;;;;;4993456;28;20210;-61
2021/11/15 12:18:17;;;;;;;32.17;22.33;;;;;;;;;;4993599;28;20213;-62
2021/11/15 12:21:00;;;;;;;31.65;22.30;;;;;;;;;;4993069;28;20238;-61
2021/11/15 12:23:27;;;;;;;37.15;23.58;;;;;;;;;;4981472;28;20207;-64
2021/11/15 12:26:03;;;;;;;37.33;22.33;;;;;;;;;;4993175;28;20206;-61
2021/11/15 12:28:31;;;;;;;36.72;23.75;;;;;;;;;;4994973;28;20189;-64
2021/11/15 12:30:58;;;;;;;38.67;24.38;;;;;;;;;;4997165;28;20232;-60
2021/11/15 12:33:31;;;;;;;40.42;26.90;;;;;;;;;;4997879;28;20207;-60
2021/11/15 12:36:00;;;;;;;37.83;26.10;;;;;;;;;;4996986;28;20678;-61
2021/11/15 12:38:35;;;;;;;41.15;27.23;;;;;;;;;;4996861;28;20206;-62
2021/11/15 12:41:04;;;;;;;42.10;28.00;;;;;;;;;;4998998;28;20748;-60
2021/11/15 12:43:31;;;;;;;38.95;27.25;;;;;;;;;;5000991;28;20206;-60
2021/11/15 12:46:10;;;;;;;40.15;28.15;;;;;;;;;;4998947;28;20556;-61
2021/11/15 12:48:40;;;;;;;40.78;27.63;;;;;;;;;;4997133;28;20243;-60
2021/11/15 12:51:14;;;;;;;44.83;29.02;;;;;;;;;;4997124;28;20230;-60
2021/11/15 12:53:44;;;;;;;48.30;29.02;;;;;;;;;;4996810;28;20205;-59
2021/11/15 12:56:12;;;;;;;41.75;28.23;;;;;;;;;;4997620;28;20212;-60
2021/11/15 12:58:43;;;;;;;41.05;27.75;;;;;;;;;;4997005;28;20217;-62
2021/11/15 13:01:11;;;;;;;43.08;27.00;;;;;;;;;;4996759;28;20226;-62
2021/11/15 13:03:40;;;;;;;44.60;27.95;;;;;;;;;;4996595;28;20679;-62
2021/11/15 13:06:08;;;;;;;42.53;27.00;;;;;;;;;;4997034;28;20217;-61
2021/11/15 13:08:36;;;;;;;42.55;28.05;;;;;;;;;;4997135;28;20339;-61
2021/11/15 13:11:03;;;;;;;45.70;27.33;;;;;;;;;;4996490;28;20233;-62
2021/11/15 13:13:31;;;;;;;43.40;26.95;;;;;;;;;;4996498;28;20202;-62
2021/11/15 13:15:58;;;;;;;44.80;29.55;;;;;;;;;;4997382;28;20217;-62
2021/11/15 13:18:25;;;;;;;39.10;25.25;;;;;;;;;;4996606;28;20217;-62
2021/11/15 13:20:54;;;;;;;42.00;26.73;;;;;;;;;;4996126;28;20718;-60
2021/11/15 13:23:21;;;;;;;39.97;25.60;;;;;;;;;;4996625;28;20228;-59
2021/11/15 13:25:49;;;;;;;34.95;24.52;;;;;;;;;;4995997;28;20202;-60
2021/11/15 13:28:16;;;;;;;39.17;26.40;;;;;;;;;;4996139;28;20205;-61
2021/11/15 13:30:44;;;;;;;39.08;25.15;;;;;;;;;;4995985;28;20256;-62
2021/11/15 13:33:11;;;;;;;39.38;24.55;;;;;;;;;;4995675;28;20235;-61
2021/11/15 13:35:38;;;;;;;37.78;23.25;;;;;;;;;;4995358;28;20293;-60
2021/11/15 13:38:07;;;;;;;35.00;23.00;;;;;;;;;;4996205;28;20212;-61
2021/11/15 13:40:36;;;;;;;35.75;22.25;;;;;;;;;;4995503;28;20592;-61
2021/11/15 13:43:04;;;;;;;36.80;22.38;;;;;;;;;;4995760;28;20221;-62
2021/11/15 13:45:31;;;;;;;33.03;23.05;;;;;;;;;;4995886;28;20208;-61
2021/11/15 13:47:59;;;;;;;36.00;23.52;;;;;;;;;;4996136;28;20202;-62
2021/11/15 13:50:26;;;;;;;37.03;22.73;;;;;;;;;;4995688;28;20226;-61
2021/11/15 13:52:53;;;;;;;36.05;23.30;;;;;;;;;;4995889;28;20214;-61
2021/11/15 13:55:22;;;;;;;35.83;23.77;;;;;;;;;;4995930;28;20206;-60
2021/11/15 13:57:50;;;;;;;41.53;24.15;;;;;;;;;;4995736;28;20206;-60
2021/11/15 14:00:17;;;;;;;35.45;23.58;;;;;;;;;;4995212;28;20226;-61
2021/11/15 14:02:45;;;;;;;37.17;23.58;;;;;;;;;;4995841;28;20209;-60
2021/11/15 14:05:12;;;;;;;40.88;25.55;;;;;;;;;;4995303;28;20676;-61
2021/11/15 14:07:40;;;;;;;44.20;27.08;;;;;;;;;;4995403;28;20697;-62
2021/11/15 14:10:07;;;;;;;40.28;24.55;;;;;;;;;;4995519;28;20222;-59
2021/11/15 14:12:36;;;;;;;37.03;25.42;;;;;;;;;;4995683;28;20206;-61
2021/11/15 14:15:04;;;;;;;39.22;24.33;;;;;;;;;;4995169;28;20210;-60
2021/11/15 14:17:31;;;;;;;37.42;23.95;;;;;;;;;;4995004;28;20206;-61
2021/11/15 14:19:59;;;;;;;40.63;24.88;;;;;;;;;;4995473;28;20234;-61
2021/11/15 14:22:26;;;;;;;41.30;26.80;;;;;;;;;;4995438;28;20190;-61
2021/11/15 14:24:53;;;;;;;39.38;25.60;;;;;;;;;;4994874;28;20706;-61
2021/11/15 14:27:21;;;;;;;34.13;23.73;;;;;;;;;;4996749;28;20209;-61
2021/11/15 14:29:50;;;;;;;36.80;24.85;;;;;;;;;;4994879;28;20255;-61
2021/11/15 14:32:18;;;;;;;33.47;22.88;;;;;;;;;;4994757;28;20226;-61